Terminal Aerodrome Forecast
Issued by NWS Grand Forks, ND

Home | Current Version | Previous Version | Graphics & Text | Print | Product List | Glossary On
Versions: 1 2 3 4 5 6 7 8 9 10 11 12 13 14 15 16 17 18 19
462
FTUS43 KFGF 201121
TAFGFK
TAF
KGFK 201121Z 2012/2112 32005KT P6SM BKN250
     FM201900 27009KT P6SM FEW200
     FM202100 27013G20KT P6SM SCT200
     FM210000 30012G20KT P6SM SCT130
     FM210200 33013KT P6SM SCT130=

USA.gov is the U.S. government's official web portal to all federal, state and local government web resources and services.